sensor_id;sensor_type;location;lat;lon;timestamp;P1;durP1;ratioP1;P2;durP2;ratioP2
13720;SDS011;6932;51.438;5.470;2023-12-20T00:01:35;7.57;;;2.50;;
13720;SDS011;6932;51.438;5.470;2023-12-20T00:04:00;10.03;;;2.60;;
13720;SDS011;6932;51.438;5.470;2023-12-20T00:06:27;6.67;;;2.43;;
13720;SDS011;6932;51.438;5.470;2023-12-20T00:08:53;6.40;;;2.23;;
13720;SDS011;6932;51.438;5.470;2023-12-20T00:11:19;7.07;;;2.27;;
13720;SDS011;6932;51.438;5.470;2023-12-20T00:13:44;5.80;;;2.27;;
13720;SDS011;6932;51.438;5.470;2023-12-20T00:16:10;6.77;;;2.37;;
13720;SDS011;6932;51.438;5.470;2023-12-20T00:18:36;5.83;;;2.00;;
13720;SDS011;6932;51.438;5.470;2023-12-20T00:21:02;7.07;;;2.27;;
13720;SDS011;6932;51.438;5.470;2023-12-20T00:23:28;5.00;;;2.10;;
13720;SDS011;6932;51.438;5.470;2023-12-20T00:25:53;9.30;;;2.20;;
13720;SDS011;6932;51.438;5.470;2023-12-20T00:28:19;8.67;;;2.70;;
13720;SDS011;6932;51.438;5.470;2023-12-20T00:30:45;6.63;;;2.30;;
13720;SDS011;6932;51.438;5.470;2023-12-20T00:33:11;6.03;;;2.37;;
13720;SDS011;6932;51.438;5.470;2023-12-20T00:35:36;7.90;;;2.13;;
13720;SDS011;6932;51.438;5.470;2023-12-20T00:38:02;6.23;;;1.90;;
13720;SDS011;6932;51.438;5.470;2023-12-20T00:40:30;5.60;;;2.00;;
13720;SDS011;6932;51.438;5.470;2023-12-20T00:42:55;8.23;;;2.30;;
13720;SDS011;6932;51.438;5.470;2023-12-20T00:45:21;8.03;;;2.10;;
13720;SDS011;6932;51.438;5.470;2023-12-20T00:47:47;8.47;;;2.30;;
13720;SDS011;6932;51.438;5.470;2023-12-20T00:50:12;7.57;;;2.00;;
13720;SDS011;6932;51.438;5.470;2023-12-20T00:52:38;8.97;;;2.20;;
13720;SDS011;6932;51.438;5.470;2023-12-20T00:55:04;8.70;;;2.03;;
13720;SDS011;6932;51.438;5.470;2023-12-20T00:57:30;10.13;;;2.70;;
13720;SDS011;6932;51.438;5.470;2023-12-20T00:59:56;9.67;;;2.10;;
13720;SDS011;6932;51.438;5.470;2023-12-20T01:02:22;9.30;;;2.07;;
13720;SDS011;6932;51.438;5.470;2023-12-20T01:04:47;6.90;;;2.03;;
13720;SDS011;6932;51.438;5.470;2023-12-20T01:07:13;8.43;;;2.20;;
13720;SDS011;6932;51.438;5.470;2023-12-20T01:09:39;11.93;;;2.23;;
13720;SDS011;6932;51.438;5.470;2023-12-20T01:12:04;7.13;;;2.20;;
13720;SDS011;6932;51.438;5.470;2023-12-20T01:14:30;10.27;;;2.33;;
13720;SDS011;6932;51.438;5.470;2023-12-20T01:16:56;6.57;;;1.80;;
13720;SDS011;6932;51.438;5.470;2023-12-20T01:19:22;5.70;;;1.97;;
13720;SDS011;6932;51.438;5.470;2023-12-20T01:21:49;7.33;;;2.20;;
13720;SDS011;6932;51.438;5.470;2023-12-20T01:24:14;8.87;;;2.20;;
13720;SDS011;6932;51.438;5.470;2023-12-20T01:26:40;8.27;;;2.23;;
13720;SDS011;6932;51.438;5.470;2023-12-20T01:29:05;9.07;;;2.30;;
13720;SDS011;6932;51.438;5.470;2023-12-20T01:31:31;7.17;;;1.90;;
13720;SDS011;6932;51.438;5.470;2023-12-20T01:33:57;6.87;;;1.93;;
13720;SDS011;6932;51.438;5.470;2023-12-20T01:36:22;5.97;;;2.00;;
13720;SDS011;6932;51.438;5.470;2023-12-20T01:38:48;9.03;;;2.13;;
13720;SDS011;6932;51.438;5.470;2023-12-20T01:41:14;9.60;;;2.43;;
13720;SDS011;6932;51.438;5.470;2023-12-20T01:43:40;7.20;;;2.70;;
13720;SDS011;6932;51.438;5.470;2023-12-20T01:46:05;8.47;;;2.27;;
13720;SDS011;6932;51.438;5.470;2023-12-20T01:48:32;9.10;;;2.07;;
13720;SDS011;6932;51.438;5.470;2023-12-20T01:50:58;6.50;;;2.10;;
13720;SDS011;6932;51.438;5.470;2023-12-20T01:53:25;9.17;;;2.30;;
13720;SDS011;6932;51.438;5.470;2023-12-20T01:55:54;7.03;;;1.87;;
13720;SDS011;6932;51.438;5.470;2023-12-20T01:58:21;8.03;;;2.10;;
13720;SDS011;6932;51.438;5.470;2023-12-20T02:00:48;7.07;;;2.33;;
13720;SDS011;6932;51.438;5.470;2023-12-20T02:03:15;7.93;;;2.10;;
13720;SDS011;6932;51.438;5.470;2023-12-20T02:05:41;6.50;;;2.13;;
13720;SDS011;6932;51.438;5.470;2023-12-20T02:08:09;6.53;;;2.13;;
13720;SDS011;6932;51.438;5.470;2023-12-20T02:10:35;7.73;;;2.30;;
13720;SDS011;6932;51.438;5.470;2023-12-20T02:13:00;6.07;;;2.23;;
13720;SDS011;6932;51.438;5.470;2023-12-20T02:15:26;7.37;;;2.00;;
13720;SDS011;6932;51.438;5.470;2023-12-20T02:17:52;10.30;;;2.70;;
13720;SDS011;6932;51.438;5.470;2023-12-20T02:20:18;8.63;;;2.23;;
13720;SDS011;6932;51.438;5.470;2023-12-20T02:22:44;5.87;;;2.03;;
13720;SDS011;6932;51.438;5.470;2023-12-20T02:25:10;8.57;;;2.20;;
13720;SDS011;6932;51.438;5.470;2023-12-20T02:27:36;10.10;;;2.40;;
13720;SDS011;6932;51.438;5.470;2023-12-20T02:30:02;6.10;;;2.10;;
13720;SDS011;6932;51.438;5.470;2023-12-20T02:32:28;11.50;;;2.70;;
13720;SDS011;6932;51.438;5.470;2023-12-20T02:34:54;10.20;;;2.40;;
13720;SDS011;6932;51.438;5.470;2023-12-20T02:37:20;9.33;;;2.53;;
13720;SDS011;6932;51.438;5.470;2023-12-20T02:39:46;9.03;;;2.10;;
13720;SDS011;6932;51.438;5.470;2023-12-20T02:42:12;8.00;;;2.53;;
13720;SDS011;6932;51.438;5.470;2023-12-20T02:44:38;7.53;;;2.20;;
13720;SDS011;6932;51.438;5.470;2023-12-20T02:47:04;6.47;;;2.30;;
13720;SDS011;6932;51.438;5.470;2023-12-20T02:49:29;9.80;;;2.47;;
13720;SDS011;6932;51.438;5.470;2023-12-20T02:51:55;9.17;;;2.37;;
13720;SDS011;6932;51.438;5.470;2023-12-20T02:54:21;6.23;;;2.23;;
13720;SDS011;6932;51.438;5.470;2023-12-20T02:56:47;7.13;;;2.50;;
13720;SDS011;6932;51.438;5.470;2023-12-20T02:59:13;8.60;;;2.50;;
13720;SDS011;6932;51.438;5.470;2023-12-20T03:01:42;8.07;;;2.33;;
13720;SDS011;6932;51.438;5.470;2023-12-20T03:04:10;7.43;;;2.50;;
13720;SDS011;6932;51.438;5.470;2023-12-20T03:06:36;8.30;;;2.40;;
13720;SDS011;6932;51.438;5.470;2023-12-20T03:09:02;8.53;;;2.70;;
13720;SDS011;6932;51.438;5.470;2023-12-20T03:11:29;9.33;;;2.70;;
13720;SDS011;6932;51.438;5.470;2023-12-20T03:13:55;8.33;;;2.90;;
13720;SDS011;6932;51.438;5.470;2023-12-20T03:16:22;8.07;;;3.10;;
13720;SDS011;6932;51.438;5.470;2023-12-20T03:18:48;10.47;;;2.93;;
13720;SDS011;6932;51.438;5.470;2023-12-20T03:21:13;8.93;;;2.67;;
13720;SDS011;6932;51.438;5.470;2023-12-20T03:23:40;7.57;;;2.87;;
13720;SDS011;6932;51.438;5.470;2023-12-20T03:26:09;8.17;;;2.80;;
13720;SDS011;6932;51.438;5.470;2023-12-20T03:28:35;9.87;;;2.60;;
13720;SDS011;6932;51.438;5.470;2023-12-20T03:31:01;9.17;;;3.00;;
13720;SDS011;6932;51.438;5.470;2023-12-20T03:33:28;7.47;;;2.80;;
13720;SDS011;6932;51.438;5.470;2023-12-20T03:35:54;9.00;;;3.10;;
13720;SDS011;6932;51.438;5.470;2023-12-20T03:38:20;8.27;;;2.90;;
13720;SDS011;6932;51.438;5.470;2023-12-20T03:40:48;9.90;;;3.27;;
13720;SDS011;6932;51.438;5.470;2023-12-20T03:43:15;11.60;;;3.57;;
13720;SDS011;6932;51.438;5.470;2023-12-20T03:45:41;9.30;;;3.00;;
13720;SDS011;6932;51.438;5.470;2023-12-20T03:48:08;10.37;;;3.27;;
13720;SDS011;6932;51.438;5.470;2023-12-20T03:50:34;7.63;;;2.70;;
13720;SDS011;6932;51.438;5.470;2023-12-20T03:53:00;9.90;;;3.07;;
13720;SDS011;6932;51.438;5.470;2023-12-20T03:55:26;8.27;;;2.83;;
13720;SDS011;6932;51.438;5.470;2023-12-20T03:57:52;11.43;;;3.40;;
13720;SDS011;6932;51.438;5.470;2023-12-20T04:00:18;8.27;;;2.93;;
13720;SDS011;6932;51.438;5.470;2023-12-20T04:02:44;10.40;;;3.20;;
13720;SDS011;6932;51.438;5.470;2023-12-20T04:05:10;11.43;;;3.47;;
13720;SDS011;6932;51.438;5.470;2023-12-20T04:07:36;8.00;;;2.90;;
13720;SDS011;6932;51.438;5.470;2023-12-20T04:10:02;10.23;;;3.10;;
13720;SDS011;6932;51.438;5.470;2023-12-20T04:12:31;9.07;;;3.10;;
13720;SDS011;6932;51.438;5.470;2023-12-20T04:14:57;10.47;;;3.07;;
13720;SDS011;6932;51.438;5.470;2023-12-20T04:17:23;8.13;;;2.83;;
13720;SDS011;6932;51.438;5.470;2023-12-20T04:19:49;8.70;;;2.87;;
13720;SDS011;6932;51.438;5.470;2023-12-20T04:22:17;7.83;;;2.83;;
13720;SDS011;6932;51.438;5.470;2023-12-20T04:24:43;11.03;;;3.33;;
13720;SDS011;6932;51.438;5.470;2023-12-20T04:27:09;10.00;;;3.40;;
13720;SDS011;6932;51.438;5.470;2023-12-20T04:29:35;9.70;;;2.97;;
13720;SDS011;6932;51.438;5.470;2023-12-20T04:32:01;9.17;;;3.10;;
13720;SDS011;6932;51.438;5.470;2023-12-20T04:34:27;9.00;;;2.90;;
13720;SDS011;6932;51.438;5.470;2023-12-20T04:36:53;10.53;;;3.10;;
13720;SDS011;6932;51.438;5.470;2023-12-20T04:39:19;11.53;;;3.40;;
13720;SDS011;6932;51.438;5.470;2023-12-20T04:41:45;9.90;;;3.67;;
13720;SDS011;6932;51.438;5.470;2023-12-20T04:44:12;8.63;;;3.33;;
13720;SDS011;6932;51.438;5.470;2023-12-20T04:46:38;9.97;;;3.63;;
13720;SDS011;6932;51.438;5.470;2023-12-20T04:49:04;8.63;;;3.07;;
13720;SDS011;6932;51.438;5.470;2023-12-20T04:51:32;9.83;;;3.50;;
13720;SDS011;6932;51.438;5.470;2023-12-20T04:53:59;10.80;;;4.13;;
13720;SDS011;6932;51.438;5.470;2023-12-20T04:56:25;9.83;;;3.33;;
13720;SDS011;6932;51.438;5.470;2023-12-20T04:58:51;9.63;;;3.50;;
13720;SDS011;6932;51.438;5.470;2023-12-20T05:01:17;9.87;;;3.50;;
13720;SDS011;6932;51.438;5.470;2023-12-20T05:03:43;9.53;;;3.23;;
13720;SDS011;6932;51.438;5.470;2023-12-20T05:06:09;10.40;;;3.53;;
13720;SDS011;6932;51.438;5.470;2023-12-20T05:08:35;10.70;;;3.27;;
13720;SDS011;6932;51.438;5.470;2023-12-20T05:11:01;10.73;;;3.43;;
13720;SDS011;6932;51.438;5.470;2023-12-20T05:13:28;11.43;;;3.30;;
13720;SDS011;6932;51.438;5.470;2023-12-20T05:15:53;10.93;;;3.17;;
13720;SDS011;6932;51.438;5.470;2023-12-20T05:18:20;9.10;;;3.43;;
13720;SDS011;6932;51.438;5.470;2023-12-20T05:20:46;13.50;;;4.27;;
13720;SDS011;6932;51.438;5.470;2023-12-20T05:23:12;11.73;;;3.43;;
13720;SDS011;6932;51.438;5.470;2023-12-20T05:25:38;8.50;;;3.07;;
13720;SDS011;6932;51.438;5.470;2023-12-20T05:28:04;10.27;;;3.50;;
13720;SDS011;6932;51.438;5.470;2023-12-20T05:30:30;7.23;;;3.10;;
13720;SDS011;6932;51.438;5.470;2023-12-20T05:32:55;11.47;;;3.30;;
13720;SDS011;6932;51.438;5.470;2023-12-20T05:35:21;11.97;;;3.50;;
13720;SDS011;6932;51.438;5.470;2023-12-20T05:37:48;9.87;;;3.40;;
13720;SDS011;6932;51.438;5.470;2023-12-20T05:40:14;13.03;;;4.17;;
13720;SDS011;6932;51.438;5.470;2023-12-20T05:42:40;10.13;;;3.20;;
13720;SDS011;6932;51.438;5.470;2023-12-20T05:45:06;10.07;;;3.00;;
13720;SDS011;6932;51.438;5.470;2023-12-20T05:47:32;9.50;;;3.00;;
13720;SDS011;6932;51.438;5.470;2023-12-20T05:49:58;10.87;;;3.50;;
13720;SDS011;6932;51.438;5.470;2023-12-20T05:52:24;9.83;;;3.20;;
13720;SDS011;6932;51.438;5.470;2023-12-20T05:54:50;10.03;;;2.93;;
13720;SDS011;6932;51.438;5.470;2023-12-20T05:57:15;11.00;;;3.20;;
13720;SDS011;6932;51.438;5.470;2023-12-20T05:59:41;11.43;;;3.87;;
13720;SDS011;6932;51.438;5.470;2023-12-20T06:02:07;11.80;;;3.33;;
13720;SDS011;6932;51.438;5.470;2023-12-20T06:04:32;10.80;;;3.13;;
13720;SDS011;6932;51.438;5.470;2023-12-20T06:06:58;10.50;;;3.30;;
13720;SDS011;6932;51.438;5.470;2023-12-20T06:09:25;8.87;;;3.00;;
13720;SDS011;6932;51.438;5.470;2023-12-20T06:11:52;9.90;;;3.33;;
13720;SDS011;6932;51.438;5.470;2023-12-20T06:14:18;11.50;;;3.33;;
13720;SDS011;6932;51.438;5.470;2023-12-20T06:16:44;10.00;;;3.40;;
13720;SDS011;6932;51.438;5.470;2023-12-20T06:19:11;8.80;;;3.13;;
13720;SDS011;6932;51.438;5.470;2023-12-20T06:21:37;9.60;;;3.50;;
13720;SDS011;6932;51.438;5.470;2023-12-20T06:24:03;10.40;;;3.20;;
13720;SDS011;6932;51.438;5.470;2023-12-20T06:26:29;9.13;;;3.40;;
13720;SDS011;6932;51.438;5.470;2023-12-20T06:28:54;12.00;;;3.43;;
13720;SDS011;6932;51.438;5.470;2023-12-20T06:31:20;10.10;;;3.70;;
13720;SDS011;6932;51.438;5.470;2023-12-20T06:33:46;12.13;;;4.33;;
13720;SDS011;6932;51.438;5.470;2023-12-20T06:36:12;11.53;;;3.50;;
13720;SDS011;6932;51.438;5.470;2023-12-20T06:38:39;13.53;;;3.30;;
13720;SDS011;6932;51.438;5.470;2023-12-20T06:41:05;10.83;;;3.07;;
13720;SDS011;6932;51.438;5.470;2023-12-20T06:43:33;8.87;;;2.83;;
13720;SDS011;6932;51.438;5.470;2023-12-20T06:46:02;10.57;;;2.93;;
13720;SDS011;6932;51.438;5.470;2023-12-20T06:48:28;8.83;;;2.87;;
13720;SDS011;6932;51.438;5.470;2023-12-20T06:50:53;10.83;;;3.73;;
13720;SDS011;6932;51.438;5.470;2023-12-20T06:53:19;10.13;;;3.00;;
13720;SDS011;6932;51.438;5.470;2023-12-20T06:55:45;9.90;;;2.80;;
13720;SDS011;6932;51.438;5.470;2023-12-20T06:58:11;12.07;;;3.00;;
13720;SDS011;6932;51.438;5.470;2023-12-20T07:00:36;10.83;;;3.03;;
13720;SDS011;6932;51.438;5.470;2023-12-20T07:03:03;8.77;;;3.40;;
13720;SDS011;6932;51.438;5.470;2023-12-20T07:05:29;8.03;;;3.03;;
13720;SDS011;6932;51.438;5.470;2023-12-20T07:07:54;11.17;;;3.20;;
13720;SDS011;6932;51.438;5.470;2023-12-20T07:10:20;11.60;;;3.50;;
13720;SDS011;6932;51.438;5.470;2023-12-20T07:12:46;9.00;;;2.73;;
13720;SDS011;6932;51.438;5.470;2023-12-20T07:15:13;10.70;;;3.00;;
13720;SDS011;6932;51.438;5.470;2023-12-20T07:17:39;12.50;;;3.60;;
13720;SDS011;6932;51.438;5.470;2023-12-20T07:20:05;10.60;;;2.77;;
13720;SDS011;6932;51.438;5.470;2023-12-20T07:22:34;10.33;;;2.77;;
13720;SDS011;6932;51.438;5.470;2023-12-20T07:25:00;8.73;;;2.83;;
13720;SDS011;6932;51.438;5.470;2023-12-20T07:27:26;11.83;;;3.37;;
13720;SDS011;6932;51.438;5.470;2023-12-20T07:29:52;9.87;;;3.23;;
13720;SDS011;6932;51.438;5.470;2023-12-20T07:32:18;8.37;;;2.57;;
13720;SDS011;6932;51.438;5.470;2023-12-20T07:34:44;8.87;;;3.03;;
13720;SDS011;6932;51.438;5.470;2023-12-20T07:37:10;9.80;;;2.83;;
13720;SDS011;6932;51.438;5.470;2023-12-20T07:39:37;11.00;;;3.20;;
13720;SDS011;6932;51.438;5.470;2023-12-20T07:42:05;11.43;;;3.60;;
13720;SDS011;6932;51.438;5.470;2023-12-20T07:44:31;9.73;;;3.17;;
13720;SDS011;6932;51.438;5.470;2023-12-20T07:46:57;10.47;;;3.20;;
13720;SDS011;6932;51.438;5.470;2023-12-20T07:49:23;10.23;;;3.20;;
13720;SDS011;6932;51.438;5.470;2023-12-20T07:51:49;14.03;;;3.13;;
13720;SDS011;6932;51.438;5.470;2023-12-20T07:54:15;10.13;;;2.83;;
13720;SDS011;6932;51.438;5.470;2023-12-20T07:56:41;11.20;;;3.07;;
13720;SDS011;6932;51.438;5.470;2023-12-20T07:59:07;7.87;;;3.00;;
13720;SDS011;6932;51.438;5.470;2023-12-20T08:01:33;8.73;;;3.00;;
13720;SDS011;6932;51.438;5.470;2023-12-20T08:03:58;9.47;;;3.00;;
13720;SDS011;6932;51.438;5.470;2023-12-20T08:06:24;11.27;;;3.13;;
13720;SDS011;6932;51.438;5.470;2023-12-20T08:08:50;8.93;;;2.73;;
13720;SDS011;6932;51.438;5.470;2023-12-20T08:11:16;7.67;;;2.73;;
13720;SDS011;6932;51.438;5.470;2023-12-20T08:13:42;8.87;;;2.97;;
13720;SDS011;6932;51.438;5.470;2023-12-20T08:16:08;10.80;;;3.03;;
13720;SDS011;6932;51.438;5.470;2023-12-20T08:18:34;10.63;;;3.10;;
13720;SDS011;6932;51.438;5.470;2023-12-20T08:21:00;8.97;;;2.70;;
13720;SDS011;6932;51.438;5.470;2023-12-20T08:23:26;9.57;;;2.93;;
13720;SDS011;6932;51.438;5.470;2023-12-20T08:25:52;13.07;;;2.97;;
13720;SDS011;6932;51.438;5.470;2023-12-20T08:28:18;9.10;;;3.20;;
13720;SDS011;6932;51.438;5.470;2023-12-20T08:30:43;10.93;;;3.20;;
13720;SDS011;6932;51.438;5.470;2023-12-20T08:33:09;9.23;;;2.87;;
13720;SDS011;6932;51.438;5.470;2023-12-20T08:35:37;12.77;;;3.43;;
13720;SDS011;6932;51.438;5.470;2023-12-20T08:38:05;10.33;;;2.97;;
13720;SDS011;6932;51.438;5.470;2023-12-20T08:40:31;12.57;;;3.23;;
13720;SDS011;6932;51.438;5.470;2023-12-20T08:42:57;11.77;;;2.93;;
13720;SDS011;6932;51.438;5.470;2023-12-20T08:45:23;13.63;;;2.97;;
13720;SDS011;6932;51.438;5.470;2023-12-20T08:47:49;9.67;;;3.07;;
13720;SDS011;6932;51.438;5.470;2023-12-20T08:50:15;12.07;;;2.90;;
13720;SDS011;6932;51.438;5.470;2023-12-20T08:52:41;8.97;;;2.97;;
13720;SDS011;6932;51.438;5.470;2023-12-20T08:55:07;10.80;;;3.00;;
13720;SDS011;6932;51.438;5.470;2023-12-20T08:57:34;11.20;;;3.50;;
13720;SDS011;6932;51.438;5.470;2023-12-20T09:00:00;9.50;;;2.90;;
13720;SDS011;6932;51.438;5.470;2023-12-20T09:02:26;8.37;;;2.93;;
13720;SDS011;6932;51.438;5.470;2023-12-20T09:04:51;10.50;;;3.10;;
13720;SDS011;6932;51.438;5.470;2023-12-20T09:07:21;9.80;;;3.13;;
13720;SDS011;6932;51.438;5.470;2023-12-20T09:09:51;9.23;;;3.20;;
13720;SDS011;6932;51.438;5.470;2023-12-20T09:12:18;8.57;;;2.97;;
13720;SDS011;6932;51.438;5.470;2023-12-20T09:14:45;9.13;;;3.20;;
13720;SDS011;6932;51.438;5.470;2023-12-20T09:17:16;8.30;;;3.00;;
13720;SDS011;6932;51.438;5.470;2023-12-20T09:19:43;9.93;;;3.00;;
13720;SDS011;6932;51.438;5.470;2023-12-20T09:22:10;7.03;;;2.50;;
13720;SDS011;6932;51.438;5.470;2023-12-20T09:24:36;9.93;;;2.97;;
13720;SDS011;6932;51.438;5.470;2023-12-20T09:27:02;9.60;;;2.87;;
13720;SDS011;6932;51.438;5.470;2023-12-20T09:29:29;10.07;;;3.50;;
13720;SDS011;6932;51.438;5.470;2023-12-20T09:31:54;13.53;;;3.00;;
13720;SDS011;6932;51.438;5.470;2023-12-20T09:34:20;9.63;;;3.00;;
13720;SDS011;6932;51.438;5.470;2023-12-20T09:36:47;10.10;;;3.00;;
13720;SDS011;6932;51.438;5.470;2023-12-20T09:39:13;10.87;;;2.77;;
13720;SDS011;6932;51.438;5.470;2023-12-20T09:41:43;7.10;;;2.43;;
13720;SDS011;6932;51.438;5.470;2023-12-20T09:44:14;10.20;;;2.90;;
13720;SDS011;6932;51.438;5.470;2023-12-20T09:46:43;9.67;;;2.70;;
13720;SDS011;6932;51.438;5.470;2023-12-20T09:49:14;10.50;;;2.80;;
13720;SDS011;6932;51.438;5.470;2023-12-20T09:51:43;9.50;;;3.00;;
13720;SDS011;6932;51.438;5.470;2023-12-20T09:54:11;9.00;;;2.97;;
13720;SDS011;6932;51.438;5.470;2023-12-20T09:56:42;8.17;;;2.80;;
13720;SDS011;6932;51.438;5.470;2023-12-20T09:59:08;10.43;;;2.63;;
13720;SDS011;6932;51.438;5.470;2023-12-20T10:01:34;8.97;;;2.90;;
13720;SDS011;6932;51.438;5.470;2023-12-20T10:04:01;8.77;;;2.77;;
13720;SDS011;6932;51.438;5.470;2023-12-20T10:06:43;12.17;;;3.23;;
13720;SDS011;6932;51.438;5.470;2023-12-20T10:09:10;8.23;;;2.60;;
13720;SDS011;6932;51.438;5.470;2023-12-20T10:11:37;9.27;;;2.70;;
13720;SDS011;6932;51.438;5.470;2023-12-20T10:14:04;10.40;;;2.87;;
13720;SDS011;6932;51.438;5.470;2023-12-20T10:16:31;7.07;;;2.73;;
13720;SDS011;6932;51.438;5.470;2023-12-20T10:18:59;8.60;;;2.80;;
13720;SDS011;6932;51.438;5.470;2023-12-20T10:21:29;8.97;;;2.80;;
13720;SDS011;6932;51.438;5.470;2023-12-20T10:23:55;9.43;;;2.70;;
13720;SDS011;6932;51.438;5.470;2023-12-20T10:26:22;10.10;;;3.00;;
13720;SDS011;6932;51.438;5.470;2023-12-20T10:28:52;10.10;;;2.93;;
13720;SDS011;6932;51.438;5.470;2023-12-20T10:31:26;7.80;;;2.73;;
13720;SDS011;6932;51.438;5.470;2023-12-20T10:33:57;9.63;;;3.10;;
13720;SDS011;6932;51.438;5.470;2023-12-20T10:36:26;8.30;;;2.70;;
13720;SDS011;6932;51.438;5.470;2023-12-20T10:38:54;8.83;;;2.90;;
13720;SDS011;6932;51.438;5.470;2023-12-20T10:41:31;12.03;;;3.40;;
13720;SDS011;6932;51.438;5.470;2023-12-20T10:44:04;8.80;;;2.93;;
13720;SDS011;6932;51.438;5.470;2023-12-20T10:46:30;10.07;;;3.20;;
13720;SDS011;6932;51.438;5.470;2023-12-20T10:48:59;11.13;;;2.80;;
13720;SDS011;6932;51.438;5.470;2023-12-20T10:51:27;10.53;;;3.07;;
13720;SDS011;6932;51.438;5.470;2023-12-20T10:53:55;10.53;;;3.27;;
13720;SDS011;6932;51.438;5.470;2023-12-20T10:56:21;9.63;;;3.27;;
13720;SDS011;6932;51.438;5.470;2023-12-20T10:58:50;9.60;;;3.30;;
13720;SDS011;6932;51.438;5.470;2023-12-20T11:01:17;9.50;;;2.80;;
13720;SDS011;6932;51.438;5.470;2023-12-20T11:03:48;10.73;;;3.30;;
13720;SDS011;6932;51.438;5.470;2023-12-20T11:06:22;12.17;;;2.90;;
13720;SDS011;6932;51.438;5.470;2023-12-20T11:09:22;10.87;;;3.07;;
13720;SDS011;6932;51.438;5.470;2023-12-20T11:12:06;6.27;;;2.43;;
13720;SDS011;6932;51.438;5.470;2023-12-20T11:14:46;9.03;;;3.03;;
13720;SDS011;6932;51.438;5.470;2023-12-20T11:17:16;9.37;;;2.97;;
13720;SDS011;6932;51.438;5.470;2023-12-20T11:20:03;9.73;;;2.97;;
13720;SDS011;6932;51.438;5.470;2023-12-20T11:22:31;10.27;;;2.77;;
13720;SDS011;6932;51.438;5.470;2023-12-20T11:25:00;8.93;;;2.90;;
13720;SDS011;6932;51.438;5.470;2023-12-20T11:27:36;11.27;;;3.00;;
13720;SDS011;6932;51.438;5.470;2023-12-20T11:30:07;12.37;;;2.80;;
13720;SDS011;6932;51.438;5.470;2023-12-20T11:32:35;9.03;;;3.13;;
13720;SDS011;6932;51.438;5.470;2023-12-20T11:37:37;9.03;;;3.17;;
13720;SDS011;6932;51.438;5.470;2023-12-20T11:40:08;10.40;;;3.47;;
13720;SDS011;6932;51.438;5.470;2023-12-20T11:42:40;10.87;;;3.00;;
13720;SDS011;6932;51.438;5.470;2023-12-20T11:45:08;11.23;;;3.17;;
13720;SDS011;6932;51.438;5.470;2023-12-20T11:47:43;8.57;;;3.17;;
13720;SDS011;6932;51.438;5.470;2023-12-20T11:50:11;9.60;;;3.13;;
13720;SDS011;6932;51.438;5.470;2023-12-20T11:52:37;12.23;;;3.43;;
13720;SDS011;6932;51.438;5.470;2023-12-20T11:55:03;10.80;;;3.23;;
13720;SDS011;6932;51.438;5.470;2023-12-20T11:57:30;10.17;;;2.97;;
13720;SDS011;6932;51.438;5.470;2023-12-20T11:59:57;9.40;;;3.10;;
13720;SDS011;6932;51.438;5.470;2023-12-20T12:02:23;9.20;;;3.10;;
13720;SDS011;6932;51.438;5.470;2023-12-20T12:04:49;10.17;;;3.30;;
13720;SDS011;6932;51.438;5.470;2023-12-20T12:07:16;10.57;;;3.03;;
13720;SDS011;6932;51.438;5.470;2023-12-20T12:09:42;9.50;;;2.83;;
13720;SDS011;6932;51.438;5.470;2023-12-20T12:12:09;11.23;;;3.27;;
13720;SDS011;6932;51.438;5.470;2023-12-20T12:14:37;10.57;;;3.10;;
13720;SDS011;6932;51.438;5.470;2023-12-20T12:17:05;9.57;;;3.10;;
13720;SDS011;6932;51.438;5.470;2023-12-20T12:19:40;10.57;;;3.23;;
13720;SDS011;6932;51.438;5.470;2023-12-20T12:22:14;11.00;;;3.37;;
13720;SDS011;6932;51.438;5.470;2023-12-20T12:24:44;8.77;;;2.90;;
13720;SDS011;6932;51.438;5.470;2023-12-20T12:27:15;8.47;;;3.20;;
13720;SDS011;6932;51.438;5.470;2023-12-20T12:29:41;9.93;;;3.17;;
13720;SDS011;6932;51.438;5.470;2023-12-20T12:32:26;9.50;;;3.07;;
13720;SDS011;6932;51.438;5.470;2023-12-20T12:34:52;8.10;;;3.20;;
13720;SDS011;6932;51.438;5.470;2023-12-20T12:37:18;11.10;;;3.00;;
13720;SDS011;6932;51.438;5.470;2023-12-20T12:39:43;9.43;;;3.40;;
13720;SDS011;6932;51.438;5.470;2023-12-20T12:42:11;10.53;;;3.40;;
13720;SDS011;6932;51.438;5.470;2023-12-20T12:44:37;12.30;;;4.13;;
13720;SDS011;6932;51.438;5.470;2023-12-20T12:47:03;9.50;;;3.40;;
13720;SDS011;6932;51.438;5.470;2023-12-20T12:49:28;10.13;;;3.77;;
13720;SDS011;6932;51.438;5.470;2023-12-20T12:51:54;11.10;;;3.73;;
13720;SDS011;6932;51.438;5.470;2023-12-20T12:54:23;9.30;;;3.70;;
13720;SDS011;6932;51.438;5.470;2023-12-20T12:56:49;9.90;;;3.97;;
13720;SDS011;6932;51.438;5.470;2023-12-20T12:59:16;13.63;;;4.77;;
13720;SDS011;6932;51.438;5.470;2023-12-20T13:01:42;10.27;;;4.10;;
13720;SDS011;6932;51.438;5.470;2023-12-20T13:04:08;12.77;;;4.27;;
13720;SDS011;6932;51.438;5.470;2023-12-20T13:06:38;11.13;;;4.43;;
13720;SDS011;6932;51.438;5.470;2023-12-20T13:09:05;9.60;;;4.30;;
13720;SDS011;6932;51.438;5.470;2023-12-20T13:11:31;11.10;;;4.40;;
13720;SDS011;6932;51.438;5.470;2023-12-20T13:13:58;11.50;;;4.40;;
13720;SDS011;6932;51.438;5.470;2023-12-20T13:16:24;9.77;;;4.40;;
13720;SDS011;6932;51.438;5.470;2023-12-20T13:18:50;11.37;;;4.30;;
13720;SDS011;6932;51.438;5.470;2023-12-20T13:21:15;11.87;;;4.83;;
13720;SDS011;6932;51.438;5.470;2023-12-20T13:23:41;10.33;;;4.10;;
13720;SDS011;6932;51.438;5.470;2023-12-20T13:26:07;10.53;;;4.23;;
13720;SDS011;6932;51.438;5.470;2023-12-20T13:28:33;12.20;;;4.53;;
13720;SDS011;6932;51.438;5.470;2023-12-20T13:30:59;12.80;;;4.10;;
13720;SDS011;6932;51.438;5.470;2023-12-20T13:33:25;11.43;;;4.03;;
13720;SDS011;6932;51.438;5.470;2023-12-20T13:35:51;12.20;;;4.20;;
13720;SDS011;6932;51.438;5.470;2023-12-20T13:38:16;11.30;;;4.20;;
13720;SDS011;6932;51.438;5.470;2023-12-20T13:40:42;10.57;;;3.83;;
13720;SDS011;6932;51.438;5.470;2023-12-20T13:43:08;11.10;;;3.60;;
13720;SDS011;6932;51.438;5.470;2023-12-20T13:45:36;12.13;;;4.00;;
13720;SDS011;6932;51.438;5.470;2023-12-20T13:48:02;11.27;;;3.87;;
13720;SDS011;6932;51.438;5.470;2023-12-20T13:50:29;12.43;;;3.90;;
13720;SDS011;6932;51.438;5.470;2023-12-20T13:52:55;9.33;;;3.67;;
13720;SDS011;6932;51.438;5.470;2023-12-20T13:55:20;9.30;;;3.90;;
13720;SDS011;6932;51.438;5.470;2023-12-20T13:57:50;10.37;;;4.00;;
13720;SDS011;6932;51.438;5.470;2023-12-20T14:00:16;9.70;;;3.47;;
13720;SDS011;6932;51.438;5.470;2023-12-20T14:02:42;11.50;;;3.60;;
13720;SDS011;6932;51.438;5.470;2023-12-20T14:05:08;9.43;;;3.40;;
13720;SDS011;6932;51.438;5.470;2023-12-20T14:07:35;10.43;;;3.60;;
13720;SDS011;6932;51.438;5.470;2023-12-20T14:10:01;8.93;;;3.40;;
13720;SDS011;6932;51.438;5.470;2023-12-20T14:12:28;11.70;;;3.90;;
13720;SDS011;6932;51.438;5.470;2023-12-20T14:14:54;10.77;;;3.80;;
13720;SDS011;6932;51.438;5.470;2023-12-20T14:17:21;10.47;;;3.60;;
13720;SDS011;6932;51.438;5.470;2023-12-20T14:19:47;9.63;;;3.60;;
13720;SDS011;6932;51.438;5.470;2023-12-20T14:22:13;10.20;;;3.80;;
13720;SDS011;6932;51.438;5.470;2023-12-20T14:24:41;9.80;;;3.67;;
13720;SDS011;6932;51.438;5.470;2023-12-20T14:27:07;9.80;;;4.00;;
13720;SDS011;6932;51.438;5.470;2023-12-20T14:29:34;10.40;;;4.20;;
13720;SDS011;6932;51.438;5.470;2023-12-20T14:32:00;11.37;;;3.70;;
13720;SDS011;6932;51.438;5.470;2023-12-20T14:34:28;12.27;;;4.03;;
13720;SDS011;6932;51.438;5.470;2023-12-20T14:36:54;9.33;;;3.50;;
13720;SDS011;6932;51.438;5.470;2023-12-20T14:39:20;7.43;;;3.53;;
13720;SDS011;6932;51.438;5.470;2023-12-20T14:41:46;9.03;;;3.80;;
13720;SDS011;6932;51.438;5.470;2023-12-20T14:44:12;8.47;;;3.20;;
13720;SDS011;6932;51.438;5.470;2023-12-20T14:46:38;10.03;;;3.83;;
13720;SDS011;6932;51.438;5.470;2023-12-20T14:49:04;9.43;;;3.43;;
13720;SDS011;6932;51.438;5.470;2023-12-20T14:51:30;13.73;;;3.90;;
13720;SDS011;6932;51.438;5.470;2023-12-20T14:53:56;9.17;;;3.30;;
13720;SDS011;6932;51.438;5.470;2023-12-20T14:56:23;10.37;;;3.53;;